Terminal Aerodrome Forecast
Issued by NWS Upton, NY

Home | Current Version | Previous Version | Text Only | Print | Product List | Glossary On
Versions: 1 2 3 4 5 6 7 8 9 10 11 12 13 14 15 16 17 18 19 20 21 22 23 24 25 26 27 28 29
000
FTUS41 KOKX 301100
TAFLGA
TAF
KLGA 301124Z 3012/0112 06006KT 6SM BR VCSH BKN007
     FM301330 07007KT P6SM BKN015
     FM301500 07008KT P6SM BKN025
     FM301730 08008KT P6SM SCT030 BKN080
     FM010200 05012KT P6SM OVC012=

USA.gov is the U.S. government's official web portal to all federal, state and local government web resources and services.